Time;durP1;ratioP1;P1;durP2;ratioP2;P2;SDS_P1;SDS_P2;PMS_P1;PMS_P2;Temp;Humidity;BMP_temperature;BMP_pressure;BME280_temperature;BME280_humidity;BME280_pressure;Samples;Min_cycle;Max_cycle;Signal;HPM_P1;HPM_P2
2024/01/29 08:53:49;;;;;;;;;;;;;;;4.97;100.00;100956.09;5052592;23;20017;-80
2024/01/29 08:56:14;;;;;;;;;;;;;;;4.96;100.00;100953.47;4916114;29;20006;-83
2024/01/29 08:58:40;;;;;;;;;;;;;;;4.98;100.00;100951.72;4925389;29;19926;-86
2024/01/29 09:01:05;;;;;;;;;;;;;;;4.98;100.00;100954.34;4925341;29;19919;-82
2024/01/29 09:03:30;;;;;;;;;;;;;;;4.96;100.00;100950.84;4908647;29;20401;-85
2024/01/29 09:05:55;;;;;;;;;;;;;;;4.96;100.00;100950.84;4925605;29;19927;-83
2024/01/29 09:08:21;;;;;;;;;;;;;;;4.95;100.00;100952.63;4923919;29;19927;-82
2024/01/29 09:10:46;;;;;;;;;;;;;;;5.00;100.00;100952.63;4925533;29;20282;-80
2024/01/29 09:13:12;;;;;;;;;;;;;;;5.00;100.00;100960.50;4925485;29;19918;-82
2024/01/29 09:15:38;;;;;;;;;;;;;;;5.01;100.00;100956.97;4925146;29;19923;-83
2024/01/29 09:18:03;;;;;;;;;;;;;;;5.00;100.00;100957.88;4925468;29;19957;-83
2024/01/29 09:20:28;;;;;;;;;;;;;;;5.03;100.00;100961.34;4925723;29;19966;-85
2024/01/29 09:22:54;;;;;;;;;;;;;;;5.00;100.00;100963.13;4924505;29;19923;-83
2024/01/29 09:25:19;;;;;;;;;;;;;;;5.05;100.00;100958.72;4924971;29;20022;-83
2024/01/29 09:27:44;;;;;;;;;;;;;;;5.04;100.00;100954.34;4925068;29;19970;-80
2024/01/29 09:30:10;;;;;;;;;;;;;;;5.01;100.00;100954.34;4925353;29;19978;-81
2024/01/29 09:32:35;;;;;;;;;;;;;;;5.05;100.00;100958.72;4925417;29;19923;-81
2024/01/29 09:35:00;;;;;;;;;;;;;;;5.04;100.00;100957.88;4924896;29;19920;-82
2024/01/29 09:37:26;;;;;;;;;;;;;;;5.07;100.00;100956.97;4914473;29;19965;-80
2024/01/29 09:39:53;;;;;;;;;;;;;;;5.02;100.00;100954.34;4925479;29;19926;-81
2024/01/29 09:42:18;;;;;;;;;;;;;;;5.05;100.00;100956.97;4926020;29;19927;-91
2024/01/29 09:44:45;;;;;;;;;;;;;;;5.07;100.00;100951.72;4925251;29;19977;-81
2024/01/29 09:47:10;;;;;;;;;;;;;;;5.06;100.00;100956.09;4925067;29;20274;-82
2024/01/29 09:49:39;;;;;;;;;;;;;;;5.13;100.00;100953.47;4927649;29;19926;-83
2024/01/29 09:52:04;;;;;;;;;;;;;;;5.13;100.00;100959.59;4926706;29;19930;-82
2024/01/29 09:54:33;;;;;;;;;;;;;;;5.15;100.00;100959.59;4928844;29;19930;-83
2024/01/29 09:56:58;;;;;;;;;;;;;;;5.16;100.00;100954.34;4928611;29;19976;-83
2024/01/29 09:59:24;;;;;;;;;;;;;;;5.12;100.00;100956.97;4928382;29;19969;-84
2024/01/29 10:01:49;;;;;;;;;;;;;;;5.15;100.00;100954.34;4919073;29;19919;-82
2024/01/29 10:04:14;;;;;;;;;;;;;;;5.16;100.00;100954.34;4928413;29;19923;-82
2024/01/29 10:06:40;;;;;;;;;;;;;;;5.20;100.00;100956.09;4925916;29;19919;-83
2024/01/29 10:09:05;;;;;;;;;;;;;;;5.15;100.00;100951.69;4928295;29;20406;-80
2024/01/29 10:11:30;;;;;;;;;;;;;;;5.13;100.00;100949.06;4928584;29;20362;-82
2024/01/29 10:13:59;;;;;;;;;;;;;;;5.19;100.00;100959.59;4911114;29;19997;-83
2024/01/29 10:16:25;;;;;;;;;;;;;;;5.17;100.00;100961.34;4928003;29;19919;-83
2024/01/29 10:18:55;;;;;;;;;;;;;;;5.22;100.00;100956.94;4928279;29;19927;-78
2024/01/29 10:21:20;;;;;;;;;;;;;;;5.22;100.00;100964.84;4928258;29;20006;-83
2024/01/29 10:23:53;;;;;;;;;;;;;;;5.24;100.00;100956.94;4927364;29;20017;-83
2024/01/29 10:26:19;;;;;;;;;;;;;;;5.28;100.00;100949.06;4927771;29;20371;-82
2024/01/29 10:28:44;;;;;;;;;;;;;;;5.32;100.00;100949.06;4928513;29;19919;-81
2024/01/29 10:31:09;;;;;;;;;;;;;;;5.32;100.00;100946.41;4928374;29;20286;-83
2024/01/29 10:33:35;;;;;;;;;;;;;;;5.35;100.00;100943.78;4927698;29;20338;-80
2024/01/29 10:36:01;;;;;;;;;;;;;;;5.38;100.00;100935.91;4927875;29;20379;-82
2024/01/29 10:38:28;;;;;;;;;;;;;;;5.33;100.00;100930.66;4910023;29;20394;-82
2024/01/29 10:40:55;;;;;;;;;;;;;;;5.33;100.00;100929.75;4927870;29;19979;-80
2024/01/29 10:43:24;;;;;;;;;;;;;;;5.34;100.00;100926.25;4927769;29;19923;-83
2024/01/29 10:45:50;;;;;;;;;;;;;;;5.37;100.00;100936.75;4926193;29;19923;-80
2024/01/29 10:48:19;;;;;;;;;;;;;;;5.35;100.00;100923.63;4926688;29;19926;-82
2024/01/29 10:50:45;;;;;;;;;;;;;;;5.34;100.00;100927.13;4927957;29;20377;-82
2024/01/29 10:53:11;;;;;;;;;;;;;;;5.40;100.00;100928.88;4926507;29;20017;-82
2024/01/29 10:55:37;;;;;;;;;;;;;;;5.41;100.00;100926.25;4909319;29;20359;-82
2024/01/29 10:58:03;;;;;;;;;;;;;;;5.44;100.00;100914.81;4927636;29;20015;-90
2024/01/29 11:00:29;;;;;;;;;;;;;;;5.43;100.00;100921.84;4927470;29;19931;-79
2024/01/29 11:02:55;;;;;;;;;;;;;;;5.48;100.00;100919.19;4918310;29;20297;-80
2024/01/29 11:05:20;;;;;;;;;;;;;;;5.50;100.00;100914.78;4927896;29;19929;-92
2024/01/29 11:07:47;;;;;;;;;;;;;;;5.46;100.00;100905.19;4926365;29;19919;-83
2024/01/29 11:10:20;;;;;;;;;;;;;;;5.45;100.00;100909.56;4927004;29;19920;-82
2024/01/29 11:12:46;;;;;;;;;;;;;;;5.50;100.00;100906.03;4927418;29;19919;-79
2024/01/29 11:15:12;;;;;;;;;;;;;;;5.48;100.00;100902.56;4927349;29;20018;-78
2024/01/29 11:17:38;;;;;;;;;;;;;;;5.50;100.00;100891.13;4927046;29;19962;-82
2024/01/29 11:20:09;;;;;;;;;;;;;;;5.50;100.00;100896.38;4927336;29;20404;-81
2024/01/29 11:22:35;;;;;;;;;;;;;;;5.49;100.00;100894.66;4925924;29;19919;-80
2024/01/29 11:25:04;;;;;;;;;;;;;;;5.54;100.00;100900.78;4926637;29;19933;-81
2024/01/29 11:27:30;;;;;;;;;;;;;;;5.57;100.00;100889.38;4927279;29;20294;-83
2024/01/29 11:29:56;;;;;;;;;;;;;;;5.51;100.00;100889.41;4926955;29;20314;-82
2024/01/29 11:32:21;;;;;;;;;;;;;;;5.49;100.00;100892.03;4926724;29;19919;-84
2024/01/29 11:34:47;;;;;;;;;;;;;;;5.50;100.00;100887.66;4926815;29;19926;-84
2024/01/29 11:37:13;;;;;;;;;;;;;;;5.54;100.00;100878.88;4925775;29;20167;-85
2024/01/29 11:39:44;;;;;;;;;;;;;;;5.54;100.00;100884.13;4926903;29;19988;-82
2024/01/29 11:42:10;;;;;;;;;;;;;;;5.53;100.00;100883.25;4926639;29;20001;-80
2024/01/29 11:44:36;;;;;;;;;;;;;;;5.54;100.00;100885.00;4926724;29;20006;-77
2024/01/29 11:47:08;;;;;;;;;;;;;;;5.54;100.00;100886.75;4927177;29;19996;-83
2024/01/29 11:49:33;;;;;;;;;;;;;;;5.49;100.00;100878.88;4926359;29;20401;-82
2024/01/29 11:51:59;;;;;;;;;;;;;;;5.53;100.00;100877.13;4925278;29;20247;-86
2024/01/29 11:54:25;;;;;;;;;;;;;;;5.51;100.00;100871.88;4926150;29;20286;-78
2024/01/29 11:56:50;;;;;;;;;;;;;;;5.53;100.00;100870.09;4926911;29;19925;-84
2024/01/29 11:59:15;;;;;;;;;;;;;;;5.56;100.00;100863.97;4926607;29;20421;-80
2024/01/29 12:01:43;;;;;;;;;;;;;;;5.55;100.00;100863.09;4926454;29;20427;-83
2024/01/29 12:04:09;;;;;;;;;;;;;;;5.56;100.00;100856.94;4926202;29;19975;-83
2024/01/29 12:06:34;;;;;;;;;;;;;;;5.62;100.00;100861.28;4925900;29;19922;-78
2024/01/29 12:09:00;;;;;;;;;;;;;;;5.58;100.00;100855.16;4925556;29;20442;-83
2024/01/29 12:11:25;;;;;;;;;;;;;;;5.58;100.00;100852.53;4925633;29;19931;-83
2024/01/29 12:13:55;;;;;;;;;;;;;;;5.59;100.00;100859.53;4926076;29;19926;-84
2024/01/29 12:16:21;;;;;;;;;;;;;;;5.61;100.00;100849.03;4926435;29;19925;-82
2024/01/29 12:18:47;;;;;;;;;;;;;;;5.59;100.00;100843.78;4926289;29;19918;-85
2024/01/29 12:21:12;;;;;;;;;;;;;;;5.61;100.00;100851.66;4925686;29;19919;-81
2024/01/29 12:23:37;;;;;;;;;;;;;;;5.59;100.00;100846.41;4924751;29;20398;-79
2024/01/29 12:26:03;;;;;;;;;;;;;;;5.60;100.00;100845.53;4926356;29;20397;-81
2024/01/29 12:28:28;;;;;;;;;;;;;;;5.68;100.00;100847.22;4926121;29;20268;-79
2024/01/29 12:30:58;;;;;;;;;;;;;;;5.60;100.00;100845.53;4924834;29;19919;-85
2024/01/29 12:33:28;;;;;;;;;;;;;;;5.62;100.00;100840.25;4924672;29;19923;-83
2024/01/29 12:35:54;;;;;;;;;;;;;;;5.63;100.00;100848.16;4924785;29;20040;-84
2024/01/29 12:38:22;;;;;;;;;;;;;;;5.64;100.00;100841.97;4924340;29;20315;-80
2024/01/29 12:40:47;;;;;;;;;;;;;;;5.68;100.00;100828.81;4925855;29;20366;-81
2024/01/29 12:43:13;;;;;;;;;;;;;;;5.70;100.00;100837.59;4908170;29;19955;-79
2024/01/29 12:45:40;;;;;;;;;;;;;;;5.70;100.00;100838.47;4925707;29;19945;-78
2024/01/29 12:48:12;;;;;;;;;;;;;;;5.72;100.00;100838.44;4926127;29;19918;-79
2024/01/29 12:50:38;;;;;;;;;;;;;;;5.73;100.00;100832.31;4924759;29;19923;-80
2024/01/29 12:53:03;;;;;;;;;;;;;;;5.76;100.00;100829.63;4924273;29;19946;-81
2024/01/29 12:55:28;;;;;;;;;;;;;;;5.80;100.00;100826.97;4925757;29;19923;-79
2024/01/29 12:57:53;;;;;;;;;;;;;;;5.85;100.00;100829.59;4908174;29;19951;-79
2024/01/29 13:00:20;;;;;;;;;;;;;;;5.83;100.00;100831.34;4925371;29;19919;-79
2024/01/29 13:02:45;;;;;;;;;;;;;;;5.82;100.00;100827.88;4924393;29;19919;-80
2024/01/29 13:05:11;;;;;;;;;;;;;;;5.82;100.00;100825.22;4925041;29;20328;-82
2024/01/29 13:07:37;;;;;;;;;;;;;;;5.89;100.00;100831.31;4924406;29;19929;-84
2024/01/29 13:10:03;;;;;;;;;;;;;;;5.88;100.00;100819.03;4925333;29;20282;-82
2024/01/29 13:12:29;;;;;;;;;;;;;;;5.94;100.00;100819.00;4925190;29;20017;-80
2024/01/29 13:14:54;;;;;;;;;;;;;;;5.99;100.00;100817.25;4908080;29;20349;-81
2024/01/29 13:17:19;;;;;;;;;;;;;;;5.96;100.00;100817.25;4925550;29;19929;-80
2024/01/29 13:19:44;;;;;;;;;;;;;;;5.98;100.00;100815.50;4925217;29;20011;-83
2024/01/29 13:22:10;;;;;;;;;;;;;;;6.00;100.00;100812.88;4923900;29;19970;-84
2024/01/29 13:24:35;;;;;;;;;;;;;;;6.03;100.00;100820.75;4929343;29;19930;-83
2024/01/29 13:27:00;;;;;;;;;;;;;;;6.03;100.00;100818.13;4929407;29;19923;-80
2024/01/29 13:29:25;;;;;;;;;;;;;;;6.06;100.00;100810.16;4928960;29;19919;-79
2024/01/29 13:31:50;;;;;;;;;;;;;;;6.07;100.00;100818.94;4929088;29;20263;-79
2024/01/29 13:34:19;;;;;;;;;;;;;;;6.07;100.00;100814.56;4929215;29;19926;-79
2024/01/29 13:36:48;;;;;;;;;;;;;;;6.10;100.00;100814.53;4927991;29;19919;-78
2024/01/29 13:39:13;;;;;;;;;;;;;;;6.10;100.00;100817.16;4928922;29;19982;-81
2024/01/29 13:41:38;;;;;;;;;;;;;;;6.13;100.00;100819.78;4918288;29;19948;-80
2024/01/29 13:44:04;;;;;;;;;;;;;;;6.11;100.00;100820.66;4928723;29;19919;-83
2024/01/29 13:46:29;;;;;;;;;;;;;;;6.12;100.00;100819.78;4929250;29;19923;-83
2024/01/29 13:48:54;;;;;;;;;;;;;;;6.15;100.00;100819.75;4928948;29;19921;-83
2024/01/29 13:51:20;;;;;;;;;;;;;;;6.15;100.00;100817.13;4928561;29;20364;-85
2024/01/29 13:53:46;;;;;;;;;;;;;;;6.14;100.00;100820.63;4909873;29;19930;-80
2024/01/29 13:56:11;;;;;;;;;;;;;;;6.16;100.00;100819.75;4928934;29;19923;-81
2024/01/29 13:58:36;;;;;;;;;;;;;;;6.20;100.00;100817.94;4928257;29;20067;-80
2024/01/29 14:01:01;;;;;;;;;;;;;;;6.20;100.00;100820.59;4928570;29;20370;-79
2024/01/29 14:03:26;;;;;;;;;;;;;;;6.23;100.00;100817.06;4928227;29;19941;-82
2024/01/29 14:05:52;;;;;;;;;;;;;;;6.19;100.00;100824.13;4928309;29;19967;-81
2024/01/29 14:08:17;;;;;;;;;;;;;;;6.24;100.00;100822.31;4926725;29;19987;-84
2024/01/29 14:10:43;;;;;;;;;;;;;;;6.22;100.00;100824.06;4928156;29;19962;-82
2024/01/29 14:13:08;;;;;;;;;;;;;;;6.21;100.00;100822.34;4929210;29;19915;-83
2024/01/29 14:15:33;;;;;;;;;;;;;;;6.22;100.00;100826.69;4928222;29;19930;-86
2024/01/29 14:17:59;;;;;;;;;;;;;;;6.25;100.00;100826.69;4928155;29;19928;-86
2024/01/29 14:20:24;;;;;;;;;;;;;;;6.27;100.00;100826.66;4928420;29;19919;-87
2024/01/29 14:22:55;;;;;;;;;;;;;;;6.27;100.00;100824.03;4926991;29;19951;-83
2024/01/29 14:25:20;;;;;;;;;;;;;;;6.24;100.00;100822.31;4928398;29;19919;-82
2024/01/29 14:27:47;;;;;;;;;;;;;;;6.27;100.00;100827.56;4928097;29;19974;-80
2024/01/29 14:30:12;;;;;;;;;;;;;;;6.27;100.00;100830.19;4927226;29;19919;-81
2024/01/29 14:32:38;;;;;;;;;;;;;;;6.30;100.00;100822.28;4910541;29;19915;-81
2024/01/29 14:35:05;;;;;;;;;;;;;;;6.29;100.00;100836.31;4926272;29;19927;-82
2024/01/29 14:37:32;;;;;;;;;;;;;;;6.32;100.00;100828.38;4926779;29;19915;-79
2024/01/29 14:39:57;;;;;;;;;;;;;;;6.29;100.00;100841.56;4927775;29;19919;-81
2024/01/29 14:42:22;;;;;;;;;;;;;;;6.33;100.00;100831.88;4928204;29;19930;-81
2024/01/29 14:44:48;;;;;;;;;;;;;;;6.31;100.00;100826.63;4927991;29;20381;-80
2024/01/29 14:47:13;;;;;;;;;;;;;;;6.36;100.00;100832.72;4926416;29;20429;-79
2024/01/29 14:49:38;;;;;;;;;;;;;;;6.34;100.00;100836.28;4927836;29;19919;-81
2024/01/29 14:52:04;;;;;;;;;;;;;;;6.38;100.00;100837.09;4925638;29;20295;-81
2024/01/29 14:54:29;;;;;;;;;;;;;;;6.36;100.00;100839.75;4927456;29;19981;-82
2024/01/29 14:56:55;;;;;;;;;;;;;;;6.35;100.00;100841.53;4928181;29;20285;-80
2024/01/29 14:59:20;;;;;;;;;;;;;;;6.38;100.00;100831.84;4927660;29;19927;-81
2024/01/29 15:01:46;;;;;;;;;;;;;;;6.36;100.00;100837.97;4927235;29;19923;-82
2024/01/29 15:04:11;;;;;;;;;;;;;;;6.38;100.00;100837.97;4927841;29;19926;-82
2024/01/29 15:06:37;;;;;;;;;;;;;;;6.42;100.00;100830.94;4927316;29;19994;-79
2024/01/29 15:09:03;;;;;;;;;;;;;;;6.38;100.00;100832.69;4926826;29;20327;-81
2024/01/29 15:11:29;;;;;;;;;;;;;;;6.41;100.00;100829.19;4927378;29;19919;-82
2024/01/29 15:13:54;;;;;;;;;;;;;;;6.40;100.00;100830.94;4927581;29;20036;-82
2024/01/29 15:16:19;;;;;;;;;;;;;;;6.39;100.00;100830.97;4927517;29;19918;-82
2024/01/29 15:18:47;;;;;;;;;;;;;;;6.40;100.00;100833.59;4927241;29;19919;-91
2024/01/29 15:21:13;;;;;;;;;;;;;;;6.41;100.00;100834.44;4927293;29;20294;-81
2024/01/29 15:23:38;;;;;;;;;;;;;;;6.42;100.00;100830.94;4908390;29;19923;-82
2024/01/29 15:26:04;;;;;;;;;;;;;;;6.44;100.00;100829.16;4927240;29;19966;-83
2024/01/29 15:28:29;;;;;;;;;;;;;;;6.44;100.00;100829.16;4927090;29;20025;-82
2024/01/29 15:30:54;;;;;;;;;;;;;;;6.42;100.00;100828.31;4927034;29;19969;-81
2024/01/29 15:33:19;;;;;;;;;;;;;;;6.44;100.00;100831.78;4926925;29;20294;-87
2024/01/29 15:35:45;;;;;;;;;;;;;;;6.45;100.00;100823.88;4927338;29;20338;-81
2024/01/29 15:38:10;;;;;;;;;;;;;;;6.47;100.00;100829.13;4925760;29;20025;-85
2024/01/29 15:40:35;;;;;;;;;;;;;;;6.49;100.00;100825.59;4926676;29;19919;-87
2024/01/29 15:43:03;;;;;;;;;;;;;;;6.48;100.00;100830.88;4927353;29;19958;-79
2024/01/29 15:45:28;;;;;;;;;;;;;;;6.47;100.00;100829.13;4925700;29;19926;-80
2024/01/29 15:47:57;;;;;;;;;;;;;;;6.48;100.00;100826.47;4926494;29;19919;-81
2024/01/29 15:50:22;;;;;;;;;;;;;;;6.50;100.00;100831.75;4927063;29;19919;-82
2024/01/29 15:52:47;;;;;;;;;;;;;;;6.48;100.00;100828.25;4924807;29;20394;-80
2024/01/29 15:55:13;;;;;;;;;;;;;;;6.50;100.00;100837.00;4926283;29;19934;-82
2024/01/29 15:57:38;;;;;;;;;;;;;;;6.51;100.00;100844.00;4925623;29;20389;-82
2024/01/29 16:00:04;;;;;;;;;;;;;;;6.51;100.00;100842.25;4926508;29;19923;-82
2024/01/29 16:02:29;;;;;;;;;;;;;;;6.53;100.00;100839.63;4926352;29;20403;-82
2024/01/29 16:04:54;;;;;;;;;;;;;;;6.53;100.00;100842.25;4926040;29;19926;-80
2024/01/29 16:07:20;;;;;;;;;;;;;;;6.54;100.00;100843.97;4925590;29;20355;-81
2024/01/29 16:09:45;;;;;;;;;;;;;;;6.55;100.00;100845.72;4926149;29;20397;-81
2024/01/29 16:12:12;;;;;;;;;;;;;;;6.55;100.00;100843.94;4925985;29;19923;-81
2024/01/29 16:14:37;;;;;;;;;;;;;;;6.58;100.00;100844.84;4926237;29;19919;-79
2024/01/29 16:17:02;;;;;;;;;;;;;;;6.57;100.00;100840.44;4908472;29;19934;-79
2024/01/29 16:19:27;;;;;;;;;;;;;;;6.58;100.00;100834.31;4926189;29;19923;-80
2024/01/29 16:21:53;;;;;;;;;;;;;;;6.59;100.00;100836.91;4907683;29;19927;-80
2024/01/29 16:24:18;;;;;;;;;;;;;;;6.59;100.00;100839.56;4925913;29;19919;-84
2024/01/29 16:26:43;;;;;;;;;;;;;;;6.60;100.00;100841.28;4925624;29;19927;-82
2024/01/29 16:29:09;;;;;;;;;;;;;;;6.60;100.00;100841.28;4925848;29;19926;-80
2024/01/29 16:31:39;;;;;;;;;;;;;;;6.60;100.00;100841.28;4925874;29;20010;-82
2024/01/29 16:34:05;;;;;;;;;;;;;;;6.62;100.00;100841.28;4925157;29;19923;-79
2024/01/29 16:36:30;;;;;;;;;;;;;;;6.61;100.00;100848.31;4925231;29;19942;-79
2024/01/29 16:38:55;;;;;;;;;;;;;;;6.63;100.00;100845.66;4923749;29;19919;-82
2024/01/29 16:41:24;;;;;;;;;;;;;;;6.64;100.00;100850.91;4925762;29;19975;-80
2024/01/29 16:43:50;;;;;;;;;;;;;;;6.61;100.00;100853.56;4925717;29;19925;-81
2024/01/29 16:46:16;;;;;;;;;;;;;;;6.68;100.00;100849.97;4925754;29;19919;-79
2024/01/29 16:48:42;;;;;;;;;;;;;;;6.68;100.00;100857.00;4924668;29;20338;-79
2024/01/29 16:51:07;;;;;;;;;;;;;;;6.69;100.00;100864.03;4925250;29;19922;-80
2024/01/29 16:53:32;;;;;;;;;;;;;;;6.67;100.00;100853.50;4924486;29;19933;-80
2024/01/29 16:55:57;;;;;;;;;;;;;;;6.68;100.00;100857.00;4925573;29;19990;-78
2024/01/29 16:58:23;;;;;;;;;;;;;;;6.69;100.00;100851.72;4924565;29;19967;-81
2024/01/29 17:00:48;;;;;;;;;;;;;;;6.72;100.00;100861.38;4924602;29;20401;-81
2024/01/29 17:03:13;;;;;;;;;;;;;;;6.72;100.00;100858.75;4925147;29;20370;-84
2024/01/29 17:05:39;;;;;;;;;;;;;;;6.72;100.00;100856.97;4925381;29;20295;-78
2024/01/29 17:08:11;;;;;;;;;;;;;;;6.71;100.00;100859.63;4923797;29;19919;-79
2024/01/29 17:10:37;;;;;;;;;;;;;;;6.73;100.00;100861.38;4924450;29;20358;-81
2024/01/29 17:13:02;;;;;;;;;;;;;;;6.74;100.00;100870.13;4925537;29;19919;-85
2024/01/29 17:15:27;;;;;;;;;;;;;;;6.76;100.00;100867.47;4925512;29;19932;-82
2024/01/29 17:17:52;;;;;;;;;;;;;;;6.75;100.00;100866.63;4925195;29;19950;-80
2024/01/29 17:20:18;;;;;;;;;;;;;;;6.76;100.00;100865.72;4925366;29;19927;-81
2024/01/29 17:22:43;;;;;;;;;;;;;;;6.77;100.00;100870.09;4924290;29;19922;-80
2024/01/29 17:25:08;;;;;;;;;;;;;;;6.76;100.00;100875.38;4908101;29;20244;-80
2024/01/29 17:27:34;;;;;;;;;;;;;;;6.78;100.00;100870.97;4925207;29;20394;-83
2024/01/29 17:29:59;;;;;;;;;;;;;;;6.82;100.00;100872.69;4924768;29;19933;-80
2024/01/29 17:32:25;;;;;;;;;;;;;;;6.80;100.00;100870.06;4908268;29;20387;-80
2024/01/29 17:34:50;;;;;;;;;;;;;;;6.81;100.00;100873.56;4907824;29;20014;-78
2024/01/29 17:37:16;;;;;;;;;;;;;;;6.83;100.00;100877.06;4923558;29;19927;-79
2024/01/29 17:39:41;;;;;;;;;;;;;;;6.83;100.00;100875.31;4915397;29;19968;-80
2024/01/29 17:42:09;;;;;;;;;;;;;;;6.84;100.00;100871.75;4925491;29;20301;-80
2024/01/29 17:44:36;;;;;;;;;;;;;;;6.85;100.00;100868.25;4924837;29;20002;-77
2024/01/29 17:47:01;;;;;;;;;;;;;;;6.86;100.00;100877.91;4924832;29;19929;-82
2024/01/29 17:49:27;;;;;;;;;;;;;;;6.86;100.00;100880.56;4915223;29;19923;-79
2024/01/29 17:51:52;;;;;;;;;;;;;;;6.85;100.00;100878.78;4923585;29;19926;-82
2024/01/29 17:54:19;;;;;;;;;;;;;;;6.86;100.00;100880.56;4923663;29;19978;-80
2024/01/29 17:56:45;;;;;;;;;;;;;;;6.89;100.00;100875.25;4915438;29;20366;-80
2024/01/29 17:59:11;;;;;;;;;;;;;;;6.89;100.00;100877.88;4924930;29;20005;-81
2024/01/29 18:01:37;;;;;;;;;;;;;;;6.90;100.00;100882.25;4924518;29;19946;-80
2024/01/29 18:04:02;;;;;;;;;;;;;;;6.90;100.00;100881.38;4924716;29;20383;-79
2024/01/29 18:06:28;;;;;;;;;;;;;;;6.92;100.00;100882.22;4923678;29;19915;-83
2024/01/29 18:08:53;;;;;;;;;;;;;;;6.91;100.00;100883.16;4923392;29;19927;-84
2024/01/29 18:11:18;;;;;;;;;;;;;;;6.91;100.00;100876.09;4928479;29;19919;-79
2024/01/29 18:13:44;;;;;;;;;;;;;;;6.91;100.00;100877.88;4928581;29;20438;-80
2024/01/29 18:16:09;;;;;;;;;;;;;;;6.93;100.00;100875.22;4928179;29;20018;-80
2024/01/29 18:18:34;;;;;;;;;;;;;;;6.92;100.00;100884.88;4911126;29;19919;-80
2024/01/29 18:21:00;;;;;;;;;;;;;;;6.95;100.00;100881.34;4927422;29;19919;-81
2024/01/29 18:23:25;;;;;;;;;;;;;;;6.94;100.00;100890.13;4909505;29;19926;-79
2024/01/29 18:25:50;;;;;;;;;;;;;;;6.95;100.00;100890.09;4928010;29;19929;-81
2024/01/29 18:28:15;;;;;;;;;;;;;;;6.97;100.00;100890.97;4928001;29;19923;-82
2024/01/29 18:30:41;;;;;;;;;;;;;;;6.97;100.00;100885.69;4928423;29;19923;-81
2024/01/29 18:33:07;;;;;;;;;;;;;;;6.96;100.00;100886.59;4910516;29;19930;-79
2024/01/29 18:35:32;;;;;;;;;;;;;;;6.97;100.00;100883.06;4927791;29;19972;-78
2024/01/29 18:37:57;;;;;;;;;;;;;;;6.99;100.00;100889.19;4926633;29;20363;-83
2024/01/29 18:40:22;;;;;;;;;;;;;;;6.99;100.00;100890.94;4927541;29;20391;-81
2024/01/29 18:42:51;;;;;;;;;;;;;;;7.02;100.00;100891.81;4927926;29;20014;-80
2024/01/29 18:45:16;;;;;;;;;;;;;;;7.00;100.00;100887.44;4927847;29;19927;-80
2024/01/29 18:47:41;;;;;;;;;;;;;;;7.02;100.00;100896.19;4927532;29;19926;-82
2024/01/29 18:50:07;;;;;;;;;;;;;;;6.99;100.00;100896.22;4927534;29;20430;-80
2024/01/29 18:52:32;;;;;;;;;;;;;;;6.99;100.00;100897.09;4927029;29;20391;-80
2024/01/29 18:54:57;;;;;;;;;;;;;;;7.00;100.00;100893.56;4927276;29;20403;-81
2024/01/29 18:57:22;;;;;;;;;;;;;;;7.03;100.00;100901.44;4927371;29;19933;-79
2024/01/29 18:59:47;;;;;;;;;;;;;;;7.04;100.00;100900.56;4927290;29;19926;-80
2024/01/29 19:02:13;;;;;;;;;;;;;;;7.04;100.00;100900.56;4927768;29;19927;-83
2024/01/29 19:04:40;;;;;;;;;;;;;;;7.05;100.00;100904.94;4927659;29;19920;-81
2024/01/29 19:07:07;;;;;;;;;;;;;;;7.04;100.00;100904.97;4908663;29;19926;-85
2024/01/29 19:09:32;;;;;;;;;;;;;;;7.04;100.00;100900.56;4927820;29;19926;-81
2024/01/29 19:11:57;;;;;;;;;;;;;;;7.04;100.00;100897.06;4927035;29;19923;-81
2024/01/29 19:14:24;;;;;;;;;;;;;;;7.06;100.00;100904.03;4926201;29;19923;-81
2024/01/29 19:16:49;;;;;;;;;;;;;;;7.09;100.00;100914.56;4927170;29;19923;-80
2024/01/29 19:19:15;;;;;;;;;;;;;;;7.08;100.00;100910.19;4927155;29;19982;-83
2024/01/29 19:21:41;;;;;;;;;;;;;;;7.07;100.00;100903.16;4908801;29;19919;-79
2024/01/29 19:24:06;;;;;;;;;;;;;;;7.11;100.00;100900.50;4926985;29;19919;-82
2024/01/29 19:26:31;;;;;;;;;;;;;;;7.08;100.00;100899.66;4917722;29;19956;-79
2024/01/29 19:28:56;;;;;;;;;;;;;;;7.07;100.00;100903.16;4927182;29;20346;-83
2024/01/29 19:31:22;;;;;;;;;;;;;;;7.09;100.00;100893.47;4909831;29;19974;-80
2024/01/29 19:33:47;;;;;;;;;;;;;;;7.12;100.00;100902.25;4927185;29;19922;-83
2024/01/29 19:36:13;;;;;;;;;;;;;;;7.12;100.00;100902.25;4926913;29;19973;-81
2024/01/29 19:38:41;;;;;;;;;;;;;;;7.14;100.00;100911.88;4925712;29;20283;-81
2024/01/29 19:41:06;;;;;;;;;;;;;;;7.14;100.00;100903.97;4925946;29;19926;-81
2024/01/29 19:43:31;;;;;;;;;;;;;;;7.13;100.00;100906.63;4926802;29;19919;-80
2024/01/29 19:45:57;;;;;;;;;;;;;;;7.14;100.00;100909.25;4927241;29;19923;-82
2024/01/29 19:48:22;;;;;;;;;;;;;;;7.14;100.00;100901.34;4926534;29;20376;-82
2024/01/29 19:50:48;;;;;;;;;;;;;;;7.15;100.00;100907.47;4926485;29;19951;-82
2024/01/29 19:53:13;;;;;;;;;;;;;;;7.17;100.00;100903.94;4925221;29;19931;-82
2024/01/29 19:55:38;;;;;;;;;;;;;;;7.16;100.00;100904.81;4917084;29;19923;-80
2024/01/29 19:58:04;;;;;;;;;;;;;;;7.19;100.00;100910.06;4926570;29;19925;-80
2024/01/29 20:00:29;;;;;;;;;;;;;;;7.18;100.00;100904.78;4926797;29;19978;-81
2024/01/29 20:02:54;;;;;;;;;;;;;;;7.19;100.00;100909.19;4926230;29;19919;-80
2024/01/29 20:05:20;;;;;;;;;;;;;;;7.19;100.00;100906.56;4926419;29;19930;-85
2024/01/29 20:07:46;;;;;;;;;;;;;;;7.17;100.00;100911.84;4925319;29;19926;-83
2024/01/29 20:10:11;;;;;;;;;;;;;;;7.17;100.00;100910.97;4926630;29;19923;-83
2024/01/29 20:12:36;;;;;;;;;;;;;;;7.18;100.00;100910.97;4926103;29;19915;-80
2024/01/29 20:15:03;;;;;;;;;;;;;;;7.17;100.00;100916.25;4926164;29;20412;-82
2024/01/29 20:17:28;;;;;;;;;;;;;;;7.18;100.00;100912.69;4926739;29;19966;-80
2024/01/29 20:19:55;;;;;;;;;;;;;;;7.23;100.00;100913.56;4908885;29;19919;-82
2024/01/29 20:22:20;;;;;;;;;;;;;;;7.23;100.00;100906.50;4915182;29;19922;-82
2024/01/29 20:24:45;;;;;;;;;;;;;;;7.23;100.00;100911.78;4926253;29;19921;-82
2024/01/29 20:27:11;;;;;;;;;;;;;;;7.22;100.00;100909.16;4926153;29;20009;-81
2024/01/29 20:29:36;;;;;;;;;;;;;;;7.25;100.00;100907.34;4925764;29;19964;-80
2024/01/29 20:32:02;;;;;;;;;;;;;;;7.24;100.00;100904.72;4925357;29;19983;-81
2024/01/29 20:34:27;;;;;;;;;;;;;;;7.24;100.00;100905.63;4925976;29;19919;-80
2024/01/29 20:36:52;;;;;;;;;;;;;;;7.26;100.00;100905.63;4924810;29;19918;-82
2024/01/29 20:39:17;;;;;;;;;;;;;;;7.26;100.00;100900.34;4925584;29;20341;-81
2024/01/29 20:41:44;;;;;;;;;;;;;;;7.27;100.00;100896.78;4925726;29;20383;-83
2024/01/29 20:44:09;;;;;;;;;;;;;;;7.30;100.00;100903.81;4924418;29;19926;-83
2024/01/29 20:46:41;;;;;;;;;;;;;;;7.29;100.00;100900.28;4925735;29;19923;-83
2024/01/29 20:49:07;;;;;;;;;;;;;;;7.29;100.00;100910.81;4925565;29;19919;-83
2024/01/29 20:51:32;;;;;;;;;;;;;;;7.27;100.00;100907.34;4925446;29;19923;-81
2024/01/29 20:53:58;;;;;;;;;;;;;;;7.31;100.00;100914.34;4924333;29;19923;-84
2024/01/29 20:56:23;;;;;;;;;;;;;;;7.29;100.00;100913.44;4925755;29;19929;-84
2024/01/29 20:58:49;;;;;;;;;;;;;;;7.29;100.00;100902.91;4925477;29;19925;-82
2024/01/29 21:01:14;;;;;;;;;;;;;;;7.28;100.00;100907.31;4925577;29;20375;-80
2024/01/29 21:03:40;;;;;;;;;;;;;;;7.31;100.00;100911.69;4925291;29;19919;-81
2024/01/29 21:06:05;;;;;;;;;;;;;;;7.32;100.00;100902.88;4925200;29;19923;-84
2024/01/29 21:08:31;;;;;;;;;;;;;;;7.32;100.00;100905.50;4924767;29;19919;-82
2024/01/29 21:10:57;;;;;;;;;;;;;;;7.32;100.00;100900.25;4925338;29;19923;-82
2024/01/29 21:13:23;;;;;;;;;;;;;;;7.33;100.00;100902.00;4925485;29;19923;-82
2024/01/29 21:15:48;;;;;;;;;;;;;;;7.32;100.00;100905.50;4925356;29;19923;-83
2024/01/29 21:18:13;;;;;;;;;;;;;;;7.33;100.00;100899.34;4907679;29;19933;-82
2024/01/29 21:20:40;;;;;;;;;;;;;;;7.32;100.00;100900.25;4925319;29;19919;-87